Time;durP1;ratioP1;P1;durP2;ratioP2;P2;SDS_P1;SDS_P2;PMS_P1;PMS_P2;Temp;Humidity;BMP_temperature;BMP_pressure;BME280_temperature;BME280_humidity;BME280_pressure;Samples;Min_cycle;Max_cycle;Signal;HPM_P1;HPM_P2
2024/03/23 08:19:03;;;;;;;12.88;5.22;;;;;;;6.16;100.00;96041.75;2090314;28;20563;-64
2024/03/23 08:20:04;;;;;;;5.18;2.80;;;;;;;6.24;98.23;96027.66;2081196;28;20659;-64
2024/03/23 08:21:06;;;;;;;2.45;1.40;;;;;;;6.66;97.45;96030.34;2062145;28;20225;-65
2024/03/23 08:22:06;;;;;;;3.58;1.60;;;;;;;6.49;95.32;96031.00;2056442;28;20657;-65
2024/03/23 08:26:55;;;;;;;1.73;1.15;;;;;;;6.60;96.51;96047.91;2091773;28;20574;-65
2024/03/23 08:31:07;;;;;;;3.72;1.55;;;;;;;7.00;93.83;96061.94;2082658;28;20568;-66
2024/03/23 08:32:08;;;;;;;3.50;1.55;;;;;;;6.98;93.88;96062.00;2073703;28;20197;-65
2024/03/23 08:36:42;;;;;;;2.75;1.20;;;;;;;7.07;91.49;96106.66;2081716;28;20941;-64
2024/03/23 08:37:43;;;;;;;7.33;1.20;;;;;;;7.75;87.22;96093.53;2073378;28;20307;-64
2024/03/23 08:38:43;;;;;;;3.10;1.30;;;;;;;8.47;85.31;96089.59;2058710;28;20246;-64
2024/03/23 08:39:44;;;;;;;3.30;1.20;;;;;;;8.25;84.56;96087.03;2060757;28;20450;-64
2024/03/23 08:40:44;;;;;;;3.40;1.20;;;;;;;8.90;82.67;96090.22;2074178;28;20204;-64
2024/03/23 08:41:46;;;;;;;3.93;1.30;;;;;;;8.99;81.85;96094.97;2066841;28;20234;-65
2024/03/23 08:42:46;;;;;;;4.47;1.40;;;;;;;8.49;82.02;96096.41;2067351;28;20217;-66
2024/03/23 08:43:47;;;;;;;2.77;1.20;;;;;;;9.03;81.18;96089.59;2067955;28;20210;-64
2024/03/23 08:44:50;;;;;;;3.90;1.30;;;;;;;9.02;79.50;96096.59;2065640;28;20213;-63
2024/03/23 08:45:51;;;;;;;3.55;1.52;;;;;;;9.76;78.04;96094.75;2066918;28;20436;-64
2024/03/23 08:46:56;;;;;;;2.92;1.13;;;;;;;9.87;77.25;96097.69;2067950;28;20284;-65
2024/03/23 08:47:56;;;;;;;3.45;1.20;;;;;;;9.05;79.36;96101.63;2070481;28;20618;-64
2024/03/23 08:48:56;;;;;;;5.47;1.43;;;;;;;8.09;80.03;96102.50;2069973;28;20224;-64
2024/03/23 08:49:57;;;;;;;3.10;1.20;;;;;;;7.91;83.64;96115.38;2072077;28;20221;-65
2024/03/23 08:51:08;;;;;;;3.95;1.25;;;;;;;7.55;84.17;96112.56;2066168;28;20677;-64
2024/03/23 08:52:09;;;;;;;3.17;1.70;;;;;;;7.27;84.55;96108.47;2068022;28;20274;-64
2024/03/23 08:53:09;;;;;;;5.23;2.50;;;;;;;7.15;86.07;96107.22;2065596;28;20222;-66
2024/03/23 08:54:10;;;;;;;4.33;1.70;;;;;;;7.05;86.87;96116.25;2065833;28;20214;-64
2024/03/23 08:55:10;;;;;;;6.70;1.77;;;;;;;7.15;86.11;96113.25;2065836;28;20280;-66
2024/03/23 08:56:11;;;;;;;4.13;1.77;;;;;;;7.24;86.30;96116.38;2060452;28;20873;-65
2024/03/23 08:57:12;;;;;;;4.07;1.80;;;;;;;7.42;85.74;96120.00;2062124;28;20198;-64
2024/03/23 08:58:13;;;;;;;7.17;2.00;;;;;;;7.25;85.55;96121.53;2069994;28;20213;-66
2024/03/23 09:00:17;;;;;;;9.15;2.38;;;;;;;7.28;85.52;96136.97;2083643;28;20562;-66
2024/03/23 09:01:17;;;;;;;8.20;2.73;;;;;;;7.40;85.25;96132.19;2076225;28;20223;-66
2024/03/23 09:02:18;;;;;;;7.30;2.03;;;;;;;8.43;84.29;96134.81;2064623;28;20487;-65
2024/03/23 09:03:19;;;;;;;5.30;2.33;;;;;;;8.45;82.43;96133.81;2073066;28;20557;-66
2024/03/23 09:04:19;;;;;;;6.60;2.27;;;;;;;7.99;81.39;96149.69;2065261;28;20638;-66
2024/03/23 09:05:20;;;;;;;10.27;2.10;;;;;;;7.75;81.70;96140.31;2065863;28;20454;-65
2024/03/23 09:06:20;;;;;;;8.30;2.53;;;;;;;7.61;82.40;96146.09;2066106;28;20226;-65
2024/03/23 09:07:21;;;;;;;6.83;2.37;;;;;;;7.26;80.41;96146.59;2064209;28;20700;-65
2024/03/23 09:08:22;;;;;;;7.40;2.53;;;;;;;7.34;81.66;96157.50;2058229;28;20337;-66
2024/03/23 09:09:22;;;;;;;10.50;2.77;;;;;;;7.22;81.41;96158.00;2059069;28;20198;-65
2024/03/23 09:10:23;;;;;;;34.50;12.80;;;;;;;7.15;80.87;96151.38;2064713;28;20209;-66
2024/03/23 09:11:23;;;;;;;41.27;18.50;;;;;;;7.33;81.20;96161.00;2065052;28;20610;-66
2024/03/23 09:12:24;;;;;;;11.20;4.63;;;;;;;7.60;79.68;96163.41;2068876;28;20211;-66
2024/03/23 09:13:25;;;;;;;10.33;3.27;;;;;;;7.51;76.62;96156.00;2066803;28;20206;-67
2024/03/23 09:14:26;;;;;;;4.97;2.43;;;;;;;7.26;73.94;96159.59;2066309;28;20271;-65
2024/03/23 09:15:26;;;;;;;13.68;4.10;;;;;;;7.41;75.37;96154.69;2074207;28;20520;-67
2024/03/23 09:16:27;;;;;;;8.50;3.30;;;;;;;8.03;73.01;96149.56;2060494;28;20251;-66
2024/03/23 09:17:28;;;;;;;15.77;3.60;;;;;;;8.73;72.43;96139.59;2065004;28;20255;-66
2024/03/23 09:18:36;;;;;;;9.90;2.83;;;;;;;8.90;71.63;96152.69;2074560;28;20503;-66
2024/03/23 09:19:36;;;;;;;6.60;2.92;;;;;;;8.81;70.15;96138.34;2069226;28;20218;-67
2024/03/23 09:20:37;;;;;;;8.53;3.10;;;;;;;8.98;71.50;96154.94;2067404;28;20209;-66
2024/03/23 09:21:37;;;;;;;12.73;3.63;;;;;;;8.51;70.72;96153.56;2061072;28;20226;-66
2024/03/23 09:22:38;;;;;;;14.23;2.90;;;;;;;8.45;71.24;96159.84;2062225;28;20221;-66
2024/03/23 09:23:38;;;;;;;9.50;2.90;;;;;;;8.11;70.63;96157.88;2065217;28;20541;-65
2024/03/23 09:24:39;;;;;;;10.80;3.37;;;;;;;8.11;69.99;96168.28;2065402;28;20638;-66
2024/03/23 09:25:49;;;;;;;13.73;3.07;;;;;;;7.71;70.24;96162.13;2066278;28;20214;-66
2024/03/23 09:26:52;;;;;;;15.40;3.53;;;;;;;8.43;70.74;96176.44;2067100;28;20237;-66
2024/03/23 09:27:52;;;;;;;8.13;2.92;;;;;;;8.21;69.73;96179.13;2068200;28;20217;-66
2024/03/23 09:28:53;;;;;;;8.93;3.53;;;;;;;7.67;69.26;96172.66;2072353;28;20531;-65
2024/03/23 09:29:53;;;;;;;11.03;3.17;;;;;;;8.31;68.64;96173.47;2075750;28;20201;-65
2024/03/23 09:30:53;;;;;;;14.73;3.47;;;;;;;7.87;68.60;96170.97;2074403;28;20209;-65
2024/03/23 09:31:54;;;;;;;11.33;3.93;;;;;;;7.62;70.09;96177.19;2064583;28;20723;-65
2024/03/23 09:32:55;;;;;;;11.93;3.30;;;;;;;7.51;69.89;96174.19;2065649;28;20742;-65
2024/03/23 09:33:55;;;;;;;11.33;3.77;;;;;;;8.49;69.08;96165.81;2073675;28;20216;-65
2024/03/23 09:34:55;;;;;;;8.40;2.90;;;;;;;9.17;67.66;96167.97;2066952;28;20588;-65
2024/03/23 09:35:56;;;;;;;11.93;3.57;;;;;;;9.78;66.25;96163.34;2066149;28;20267;-65
2024/03/23 09:36:56;;;;;;;12.13;3.70;;;;;;;10.47;65.73;96173.84;2069460;28;20250;-65
2024/03/23 09:37:57;;;;;;;14.83;3.60;;;;;;;10.91;64.03;96168.06;2071950;28;20211;-65
2024/03/23 09:38:58;;;;;;;7.67;3.20;;;;;;;10.48;64.76;96165.09;2072852;28;20351;-65
2024/03/23 09:39:58;;;;;;;6.53;2.90;;;;;;;10.23;64.57;96164.56;2068305;28;20986;-65
2024/03/23 09:40:59;;;;;;;12.73;3.57;;;;;;;11.25;64.91;96171.47;2050570;28;20778;-66
2024/03/23 09:42:00;;;;;;;10.93;3.70;;;;;;;11.25;61.71;96161.84;2060208;28;20513;-66
2024/03/23 09:43:01;;;;;;;11.07;3.37;;;;;;;11.25;64.14;96161.00;2067616;28;20443;-66
2024/03/23 09:44:02;;;;;;;13.03;4.87;;;;;;;10.89;64.25;96154.22;2064449;28;20210;-66
2024/03/23 09:45:06;;;;;;;13.25;3.60;;;;;;;10.13;65.16;96156.38;2073592;28;20447;-66
2024/03/23 09:46:08;;;;;;;10.52;4.00;;;;;;;9.35;65.99;96168.03;2065348;28;20197;-66
2024/03/23 09:47:09;;;;;;;8.02;3.10;;;;;;;8.66;65.91;96150.28;2060566;28;20195;-66
2024/03/23 09:48:10;;;;;;;7.63;3.00;;;;;;;8.88;66.25;96159.72;2060464;28;20218;-66
2024/03/23 09:49:10;;;;;;;7.40;2.92;;;;;;;9.49;65.90;96155.16;2068291;28;20591;-66
2024/03/23 09:50:13;;;;;;;10.50;3.53;;;;;;;9.09;67.20;96162.25;2066505;28;20209;-67
2024/03/23 09:51:14;;;;;;;16.52;4.15;;;;;;;8.88;68.61;96166.69;2071905;28;20275;-66
2024/03/23 09:52:14;;;;;;;12.47;3.47;;;;;;;8.94;67.83;96169.88;2067501;28;20257;-66
2024/03/23 09:53:15;;;;;;;15.40;3.17;;;;;;;9.30;67.93;96165.63;2067167;28;20450;-66
2024/03/23 09:54:15;;;;;;;7.63;2.60;;;;;;;9.45;68.42;96162.28;2057610;28;20206;-66
2024/03/23 09:55:17;;;;;;;19.37;3.37;;;;;;;9.72;67.01;96150.59;2059804;28;20206;-67
2024/03/23 09:56:18;;;;;;;7.07;2.83;;;;;;;9.49;67.80;96160.38;2057055;28;20573;-67
2024/03/23 09:57:18;;;;;;;13.37;3.53;;;;;;;9.11;68.67;96161.25;2069717;28;20316;-67
2024/03/23 09:58:19;;;;;;;12.10;4.00;;;;;;;8.73;68.14;96137.81;2073198;28;20467;-68
2024/03/23 09:59:19;;;;;;;16.43;3.80;;;;;;;8.81;67.73;96156.56;2072885;28;20648;-67
2024/03/23 10:00:20;;;;;;;7.90;3.70;;;;;;;8.28;68.56;96160.59;2072390;28;20193;-66
2024/03/23 10:01:21;;;;;;;11.60;4.23;;;;;;;8.43;67.89;96153.03;2064198;28;20218;-65
2024/03/23 10:02:21;;;;;;;12.30;5.40;;;;;;;8.78;67.18;96151.47;2068130;28;20210;-65
2024/03/23 10:03:22;;;;;;;13.83;6.30;;;;;;;9.58;66.45;96149.50;2067454;28;20572;-66
2024/03/23 10:04:41;;;;;;;26.93;11.80;;;;;;;10.67;63.58;96150.16;2065643;28;20210;-66
2024/03/23 10:05:42;;;;;;;13.57;4.82;;;;;;;11.09;62.62;96155.78;2067435;28;20202;-66
2024/03/23 10:06:42;;;;;;;11.13;3.20;;;;;;;11.49;61.48;96156.19;2063689;28;20364;-66
2024/03/23 10:07:43;;;;;;;12.83;5.67;;;;;;;12.24;60.49;96151.03;2064653;28;20210;-66
2024/03/23 10:08:43;;;;;;;14.63;3.63;;;;;;;11.75;61.44;96153.84;2066277;28;20695;-66
2024/03/23 10:09:45;;;;;;;12.30;3.23;;;;;;;10.99;60.94;96150.19;2072901;28;20213;-66
2024/03/23 10:10:46;;;;;;;12.02;4.75;;;;;;;10.74;61.15;96156.75;2073160;28;20659;-66
2024/03/23 10:11:50;;;;;;;11.50;3.67;;;;;;;10.16;62.15;96147.53;2057427;28;20226;-66
2024/03/23 10:12:50;;;;;;;25.95;12.52;;;;;;;9.20;64.75;96154.78;2059589;28;20214;-66
2024/03/23 10:13:51;;;;;;;14.97;6.10;;;;;;;8.81;67.03;96153.97;2059419;28;20211;-66
2024/03/23 10:14:51;;;;;;;24.07;8.13;;;;;;;8.30;67.00;96155.31;2058744;28;20289;-65
2024/03/23 10:15:59;;;;;;;19.80;5.33;;;;;;;8.24;67.57;96156.44;2059753;28;20276;-66
2024/03/23 10:17:18;;;;;;;16.30;4.43;;;;;;;8.33;68.17;96150.00;2059904;28;20222;-66
2024/03/23 10:18:20;;;;;;;11.13;4.85;;;;;;;8.69;69.93;96148.47;2070114;28;20213;-66
2024/03/23 10:19:31;;;;;;;9.57;3.10;;;;;;;8.76;68.65;96145.53;2071603;28;20216;-66
2024/03/23 10:20:32;;;;;;;13.45;3.10;;;;;;;8.42;67.43;96151.34;2061880;28;20214;-65
2024/03/23 10:21:32;;;;;;;9.83;3.40;;;;;;;8.22;68.29;96155.66;2059850;28;20225;-65
2024/03/23 10:22:38;;;;;;;11.63;2.93;;;;;;;9.12;67.55;96162.97;2044567;28;20216;-66
2024/03/23 10:23:41;;;;;;;13.15;3.17;;;;;;;9.03;66.27;96152.97;2062183;28;20206;-67
2024/03/23 10:24:42;;;;;;;15.93;2.97;;;;;;;8.27;66.89;96147.66;2068987;28;20663;-67
2024/03/23 10:25:43;;;;;;;11.98;3.67;;;;;;;8.04;69.58;96154.69;2060475;28;20206;-67
2024/03/23 10:26:43;;;;;;;10.97;4.03;;;;;;;7.76;71.62;96161.03;2057573;28;20219;-67
2024/03/23 10:27:44;;;;;;;7.50;3.43;;;;;;;7.22;73.62;96170.97;2065657;28;20459;-66
2024/03/23 10:48:59;;;;;;;6.07;2.70;;;;;;;3.88;95.64;96239.28;2099596;28;21134;-65
2024/03/23 10:50:00;;;;;;;12.30;2.70;;;;;;;3.83;94.76;96237.69;2089149;28;20196;-65
2024/03/23 10:51:01;;;;;;;6.70;3.67;;;;;;;4.20;96.31;96221.25;2078298;28;20288;-64
2024/03/23 10:52:05;;;;;;;8.87;2.90;;;;;;;4.50;95.84;96211.00;2066364;28;20691;-65
2024/03/23 10:53:07;;;;;;;10.80;4.57;;;;;;;5.12;96.79;96206.66;2066852;28;20467;-65
2024/03/23 10:54:13;;;;;;;12.68;4.53;;;;;;;5.27;95.50;96210.50;2065388;28;20211;-65
2024/03/23 10:55:16;;;;;;;8.02;2.70;;;;;;;5.03;92.33;96216.38;2068381;28;20206;-65
2024/03/23 10:56:18;;;;;;;6.32;3.22;;;;;;;5.02;93.08;96224.19;2061747;28;20244;-65
2024/03/23 10:57:23;;;;;;;6.88;3.47;;;;;;;5.06;92.67;96221.44;2057738;28;20219;-66
2024/03/23 10:58:49;;;;;;;7.85;3.63;;;;;;;5.00;92.99;96219.06;2065870;28;20207;-66
2024/03/23 10:59:50;;;;;;;7.45;3.08;;;;;;;5.05;93.71;96200.78;2064937;28;20211;-65
2024/03/23 11:00:51;;;;;;;11.60;2.83;;;;;;;5.78;90.14;96209.75;2063509;28;20244;-66
2024/03/23 11:01:59;;;;;;;7.60;3.25;;;;;;;7.64;85.94;96203.97;2063124;28;20737;-66
2024/03/23 11:02:59;;;;;;;5.57;2.10;;;;;;;8.70;81.41;96197.84;2062872;28;20218;-66
2024/03/23 11:04:00;;;;;;;12.63;2.67;;;;;;;9.39;78.17;96196.44;2062292;28;20208;-66
2024/03/23 11:05:00;;;;;;;10.77;3.23;;;;;;;9.94;76.17;96194.69;2065130;28;20209;-66
2024/03/23 11:06:01;;;;;;;6.27;3.07;;;;;;;10.18;73.14;96191.81;2057226;28;20210;-66
2024/03/23 11:07:02;;;;;;;5.80;2.10;;;;;;;10.04;72.13;96182.88;2066429;28;20252;-66
2024/03/23 11:08:03;;;;;;;8.37;1.97;;;;;;;9.70;73.89;96187.19;2065855;28;20202;-66
2024/03/23 11:09:04;;;;;;;8.87;2.40;;;;;;;9.70;74.99;96189.78;2055872;28;20465;-66
2024/03/23 11:10:25;;;;;;;9.93;2.20;;;;;;;10.56;73.65;96187.28;2058888;28;20202;-66
2024/03/23 11:11:26;;;;;;;7.35;2.40;;;;;;;10.53;71.84;96190.03;2059091;28;20577;-67
2024/03/23 11:12:28;;;;;;;3.03;1.87;;;;;;;11.40;71.44;96188.06;2059439;28;20211;-66
2024/03/23 11:13:29;;;;;;;4.82;1.52;;;;;;;11.31;70.17;96193.78;2064783;28;20448;-66
2024/03/23 11:14:32;;;;;;;7.53;1.70;;;;;;;11.05;67.60;96185.59;2057470;28;20213;-66
2024/03/23 11:15:33;;;;;;;5.32;1.73;;;;;;;10.69;68.63;96195.31;2058490;28;20211;-67
2024/03/23 11:16:35;;;;;;;5.57;1.97;;;;;;;11.33;68.78;96184.09;2058005;28;20218;-66
2024/03/23 11:17:36;;;;;;;6.68;2.40;;;;;;;11.15;69.54;96191.16;2060355;28;20206;-67
2024/03/23 11:18:37;;;;;;;5.63;2.13;;;;;;;10.80;70.57;96192.13;2059609;28;20290;-66
2024/03/23 11:19:38;;;;;;;6.90;2.20;;;;;;;10.80;69.51;96188.69;2058528;28;20640;-65
2024/03/23 11:20:38;;;;;;;5.20;1.77;;;;;;;10.69;70.00;96189.22;2064870;28;20198;-67
2024/03/23 11:21:55;;;;;;;5.57;1.73;;;;;;;10.39;69.67;96187.31;2046002;28;20465;-67
2024/03/23 11:22:55;;;;;;;5.13;1.40;;;;;;;10.52;70.60;96182.28;2059123;28;20225;-66
2024/03/23 11:24:13;;;;;;;4.47;1.33;;;;;;;11.11;69.24;96178.28;2064055;28;20202;-67
2024/03/23 11:25:20;;;;;;;4.70;1.70;;;;;;;9.89;69.38;96184.53;2066434;28;20230;-67
2024/03/23 11:26:21;;;;;;;3.38;1.38;;;;;;;9.29;72.33;96183.03;2064325;28;20255;-66
2024/03/23 11:27:21;;;;;;;2.73;1.37;;;;;;;8.76;72.70;96181.97;2058427;28;20203;-67
2024/03/23 11:28:22;;;;;;;3.23;1.33;;;;;;;8.43;73.92;96179.91;2057901;28;20226;-67
2024/03/23 11:29:22;;;;;;;8.10;1.50;;;;;;;7.97;69.43;96185.31;2060721;28;20260;-66
2024/03/23 11:30:24;;;;;;;4.13;1.33;;;;;;;7.74;73.84;96199.22;2059972;28;20211;-67
2024/03/23 11:31:25;;;;;;;3.60;1.65;;;;;;;7.63;74.27;96189.28;2059368;28;20218;-67
2024/03/23 11:32:26;;;;;;;6.83;1.50;;;;;;;8.09;74.51;96199.56;2065486;28;20213;-67
2024/03/23 11:33:26;;;;;;;7.20;1.97;;;;;;;7.88;73.72;96190.88;2056449;28;20219;-66
2024/03/23 11:34:27;;;;;;;3.90;1.67;;;;;;;7.71;74.40;96195.91;2056496;28;20293;-66
2024/03/23 11:35:32;;;;;;;9.13;1.73;;;;;;;8.00;67.32;96190.38;2059060;28;20552;-66
2024/03/23 11:36:33;;;;;;;7.60;1.65;;;;;;;7.83;69.94;96185.03;2053760;28;20908;-67
2024/03/23 11:37:33;;;;;;;10.17;1.67;;;;;;;8.06;71.89;96183.22;2058874;28;20659;-66
2024/03/23 11:38:37;;;;;;;6.43;1.50;;;;;;;8.14;71.53;96182.00;2061209;28;20214;-64
2024/03/23 11:39:37;;;;;;;6.70;1.50;;;;;;;7.92;71.24;96192.47;2052690;28;20229;-65
2024/03/23 11:40:42;;;;;;;5.90;1.67;;;;;;;7.34;71.06;96178.28;2060029;28;20210;-64
2024/03/23 11:41:49;;;;;;;2.47;1.10;;;;;;;7.22;72.60;96193.50;2056683;28;20565;-64
2024/03/23 11:42:56;;;;;;;6.05;1.10;;;;;;;7.27;73.28;96186.38;2059947;28;20212;-64
2024/03/23 11:43:56;;;;;;;6.97;1.40;;;;;;;7.28;72.81;96191.50;2061200;28;20281;-64
2024/03/23 11:44:57;;;;;;;5.80;1.20;;;;;;;7.32;73.24;96187.06;2057945;28;20199;-64
2024/03/23 11:45:58;;;;;;;4.73;1.67;;;;;;;7.17;72.31;96191.94;2066045;28;20723;-67
2024/03/23 11:47:09;;;;;;;9.80;1.48;;;;;;;7.11;72.15;96180.94;2057158;28;20218;-66
2024/03/23 11:48:15;;;;;;;4.90;1.55;;;;;;;7.28;72.11;96186.31;2051396;28;20211;-67
2024/03/23 11:49:29;;;;;;;8.77;2.20;;;;;;;7.32;70.73;96177.50;2051103;28;20207;-66
2024/03/23 11:50:29;;;;;;;8.80;2.22;;;;;;;7.37;70.13;96179.09;2060281;28;20590;-67
2024/03/23 11:51:34;;;;;;;10.13;2.27;;;;;;;9.15;68.23;96172.38;2061836;28;20264;-67
2024/03/23 11:52:36;;;;;;;9.13;2.25;;;;;;;9.69;64.21;96180.28;2064220;28;20209;-66
2024/03/23 11:53:39;;;;;;;12.20;2.10;;;;;;;9.94;61.50;96164.28;2065265;28;20704;-67
2024/03/23 11:54:40;;;;;;;8.10;2.05;;;;;;;9.14;62.32;96181.13;2072801;28;20209;-67
2024/03/23 11:55:46;;;;;;;11.93;1.93;;;;;;;8.39;63.31;96180.94;2066029;28;20648;-65
2024/03/23 11:57:00;;;;;;;7.28;1.90;;;;;;;8.14;66.28;96182.00;2067248;28;20281;-64
2024/03/23 11:58:01;;;;;;;5.60;1.42;;;;;;;7.91;66.71;96182.97;2075610;28;20205;-64
2024/03/23 11:59:01;;;;;;;5.47;1.77;;;;;;;7.57;67.00;96175.69;2064414;28;20202;-65
2024/03/23 12:00:19;;;;;;;8.27;2.10;;;;;;;7.39;67.32;96193.72;2069796;28;20202;-64
2024/03/23 12:01:20;;;;;;;9.70;1.70;;;;;;;7.60;67.93;96180.75;2075712;28;20205;-64
2024/03/23 12:02:24;;;;;;;8.77;2.20;;;;;;;7.90;66.39;96170.00;2060972;28;20241;-66
2024/03/23 12:03:32;;;;;;;8.98;1.83;;;;;;;8.25;68.07;96172.88;2048695;28;20670;-67
2024/03/23 12:04:36;;;;;;;5.30;1.73;;;;;;;7.92;67.20;96147.41;2049026;28;20239;-67
2024/03/23 12:05:39;;;;;;;9.07;2.47;;;;;;;7.78;67.29;96167.03;2055583;28;20689;-67
2024/03/23 12:06:40;;;;;;;11.30;1.88;;;;;;;7.70;67.95;96156.09;2066215;28;20875;-67
2024/03/23 12:07:40;;;;;;;16.37;2.43;;;;;;;7.68;68.28;96165.69;2067534;28;20210;-64
2024/03/23 12:08:41;;;;;;;9.77;2.10;;;;;;;7.44;68.59;96165.78;2064236;28;20222;-66
2024/03/23 12:09:42;;;;;;;11.27;1.80;;;;;;;7.45;69.71;96162.28;2063377;28;20214;-66
2024/03/23 12:10:47;;;;;;;16.83;1.85;;;;;;;7.22;68.98;96164.94;2070582;28;20588;-66
2024/03/23 12:11:48;;;;;;;12.80;2.47;;;;;;;7.37;70.41;96173.91;2075429;28;20231;-67
2024/03/23 12:13:01;;;;;;;19.40;2.00;;;;;;;7.52;70.36;96157.69;2077246;28;20210;-66
2024/03/23 12:14:02;;;;;;;12.05;3.65;;;;;;;7.40;69.95;96172.00;2063911;28;20203;-66
2024/03/23 12:15:07;;;;;;;8.43;2.90;;;;;;;7.45;70.52;96148.44;2056251;28;20199;-66
2024/03/23 12:16:24;;;;;;;9.35;2.33;;;;;;;7.45;69.91;96159.69;2053945;28;20207;-67
2024/03/23 12:17:25;;;;;;;11.57;3.28;;;;;;;7.44;70.90;96151.94;2057874;28;20218;-66
2024/03/23 12:18:25;;;;;;;10.43;2.40;;;;;;;7.38;70.35;96154.78;2056621;28;20234;-66
2024/03/23 12:19:26;;;;;;;9.90;1.77;;;;;;;7.34;70.18;96162.72;2056108;28;20930;-67
2024/03/23 12:20:26;;;;;;;10.07;3.37;;;;;;;7.16;70.15;96156.50;2056697;28;20211;-66
2024/03/23 12:21:27;;;;;;;9.10;2.10;;;;;;;7.64;69.55;96166.72;2055189;28;20229;-66
2024/03/23 12:22:29;;;;;;;10.37;2.70;;;;;;;7.36;70.58;96154.84;2064500;28;20224;-66
2024/03/23 12:23:29;;;;;;;10.98;1.95;;;;;;;7.54;71.09;96155.03;2062868;28;20273;-66
2024/03/23 12:24:31;;;;;;;15.30;3.70;;;;;;;7.45;70.94;96148.44;2059990;28;20677;-66
2024/03/23 12:25:32;;;;;;;11.93;2.85;;;;;;;7.30;69.56;96149.88;2058296;28;20206;-66
2024/03/23 12:26:34;;;;;;;10.20;2.47;;;;;;;7.35;69.92;96159.22;2057774;28;20222;-66
2024/03/23 12:27:34;;;;;;;11.50;2.85;;;;;;;7.54;70.28;96160.22;2056558;28;20206;-66
2024/03/23 12:28:35;;;;;;;13.90;4.50;;;;;;;7.36;71.91;96157.44;2056244;28;20262;-65
2024/03/23 12:29:35;;;;;;;17.10;3.50;;;;;;;7.79;69.33;96147.06;2060663;28;20601;-66
2024/03/23 12:30:40;;;;;;;12.40;3.90;;;;;;;8.51;66.54;96145.78;2068723;28;20208;-66
2024/03/23 12:31:40;;;;;;;16.42;4.45;;;;;;;8.30;66.72;96147.53;2064029;28;20222;-66
2024/03/23 12:32:41;;;;;;;14.60;4.50;;;;;;;8.81;67.92;96156.56;2064363;28;20641;-66
2024/03/23 12:33:42;;;;;;;15.17;4.43;;;;;;;9.76;65.71;96144.31;2064245;28;20330;-66
2024/03/23 12:34:43;;;;;;;12.07;4.20;;;;;;;10.42;64.13;96145.38;2062205;28;20615;-66
2024/03/23 12:35:43;;;;;;;10.80;3.40;;;;;;;9.51;65.88;96157.69;2062301;28;20214;-66
2024/03/23 12:36:44;;;;;;;10.83;3.17;;;;;;;8.96;65.40;96148.97;2063613;28;20292;-66
2024/03/23 12:37:44;;;;;;;8.07;2.80;;;;;;;8.68;66.54;96144.16;2064191;28;20206;-66
2024/03/23 12:38:45;;;;;;;8.03;3.03;;;;;;;8.21;66.33;96140.94;2060117;28;20221;-65
2024/03/23 12:39:45;;;;;;;11.80;2.70;;;;;;;7.79;66.22;96154.88;2061515;28;20444;-65
2024/03/23 12:40:50;;;;;;;7.57;2.63;;;;;;;7.50;66.68;96160.34;2067195;28;20676;-65
2024/03/23 12:41:52;;;;;;;7.50;2.35;;;;;;;7.56;68.56;96153.22;2058819;28;20230;-65
2024/03/23 12:42:53;;;;;;;10.00;3.00;;;;;;;7.64;69.29;96153.75;2061385;28;20274;-66
2024/03/23 12:43:56;;;;;;;6.15;2.50;;;;;;;8.65;66.95;96159.00;2061810;28;20649;-66
2024/03/23 12:44:57;;;;;;;9.57;2.40;;;;;;;8.69;66.50;96158.88;2059344;28;20647;-65
2024/03/23 12:45:58;;;;;;;12.10;3.27;;;;;;;8.28;67.25;96158.00;2068774;28;20207;-65
2024/03/23 12:46:58;;;;;;;10.45;2.70;;;;;;;8.14;67.93;96156.00;2066846;28;20283;-65
2024/03/23 12:47:59;;;;;;;13.67;3.70;;;;;;;8.20;68.27;96156.63;2061042;28;20211;-66
2024/03/23 12:49:00;;;;;;;8.73;2.47;;;;;;;7.90;66.79;96157.00;2060883;28;20713;-66
2024/03/23 12:50:00;;;;;;;15.43;2.80;;;;;;;7.98;66.80;96154.94;2064702;28;20330;-66
2024/03/23 12:51:01;;;;;;;12.80;3.77;;;;;;;8.99;66.10;96154.88;2064764;28;20274;-66
2024/03/23 12:52:01;;;;;;;7.70;2.20;;;;;;;8.89;66.63;96145.78;2062604;28;20233;-65
2024/03/23 12:53:02;;;;;;;15.33;2.70;;;;;;;9.33;65.98;96139.41;2063501;28;20218;-65
2024/03/23 12:54:03;;;;;;;12.47;4.80;;;;;;;9.43;64.89;96145.03;2060177;28;20319;-66
2024/03/23 12:55:07;;;;;;;12.10;5.40;;;;;;;9.45;64.16;96151.03;2056059;28;20756;-66
2024/03/23 12:56:11;;;;;;;11.30;3.05;;;;;;;8.29;62.98;96133.69;2057629;28;20622;-66
2024/03/23 12:57:12;;;;;;;8.32;2.97;;;;;;;8.05;63.79;96153.78;2068562;28;20657;-66
2024/03/23 12:58:12;;;;;;;8.17;2.40;;;;;;;7.87;64.45;96142.38;2061916;28;20528;-65
2024/03/23 12:59:13;;;;;;;11.00;3.03;;;;;;;8.04;65.21;96144.28;2061588;28;20206;-65
2024/03/23 13:00:15;;;;;;;13.93;4.40;;;;;;;7.99;65.79;96147.06;2058902;28;20256;-66
2024/03/23 13:01:17;;;;;;;13.38;3.50;;;;;;;7.82;65.38;96158.19;2060392;28;20207;-66
2024/03/23 13:02:21;;;;;;;14.70;2.40;;;;;;;7.63;64.25;96152.91;2060779;28;20726;-65
2024/03/23 13:03:21;;;;;;;14.68;3.80;;;;;;;7.99;65.05;96156.66;2061867;28;20202;-65
2024/03/23 13:04:22;;;;;;;12.47;4.23;;;;;;;7.99;63.29;96144.47;2061729;28;20683;-65
2024/03/23 13:05:22;;;;;;;9.43;2.60;;;;;;;7.82;60.90;96146.94;2059772;28;20279;-65
2024/03/23 13:06:23;;;;;;;12.10;3.67;;;;;;;8.34;61.70;96136.06;2058143;28;20215;-65
2024/03/23 13:07:23;;;;;;;15.40;4.17;;;;;;;8.71;61.44;96139.69;2057686;28;20210;-65
2024/03/23 13:08:24;;;;;;;11.13;4.40;;;;;;;8.82;61.10;96140.03;2064688;28;20210;-65
2024/03/23 13:09:24;;;;;;;19.87;6.90;;;;;;;8.57;62.62;96139.44;2063705;28;20220;-66
2024/03/23 13:10:25;;;;;;;16.93;4.07;;;;;;;8.13;62.99;96138.69;2060268;28;20241;-66
2024/03/23 13:11:25;;;;;;;19.13;6.53;;;;;;;7.94;63.83;96156.00;2062852;28;20560;-66
2024/03/23 13:12:26;;;;;;;9.40;2.60;;;;;;;8.36;62.58;96141.22;2063681;28;20272;-65
2024/03/23 13:13:26;;;;;;;9.63;3.07;;;;;;;8.80;61.68;96133.22;2063941;28;20857;-65
2024/03/23 13:14:27;;;;;;;14.80;3.30;;;;;;;9.11;61.06;96116.97;2059346;28;20217;-65
2024/03/23 13:15:27;;;;;;;9.63;2.67;;;;;;;9.49;60.36;96116.06;2063489;28;20202;-65
2024/03/23 13:16:28;;;;;;;9.07;2.43;;;;;;;9.74;60.00;96105.28;2055113;28;20291;-65
2024/03/23 13:17:28;;;;;;;14.53;2.17;;;;;;;9.57;59.37;96108.72;2067331;28;20217;-66
2024/03/23 13:18:30;;;;;;;10.73;2.80;;;;;;;9.92;60.02;96107.88;2059473;28;20340;-66
2024/03/23 13:19:30;;;;;;;15.65;3.30;;;;;;;9.92;60.19;96103.50;2060313;28;20656;-65
2024/03/23 13:20:31;;;;;;;7.57;2.53;;;;;;;9.24;60.68;96099.03;2066191;28;20599;-65
2024/03/23 13:21:31;;;;;;;10.03;2.23;;;;;;;9.52;61.38;96102.03;2069430;28;20768;-65
2024/03/23 13:22:32;;;;;;;11.40;2.43;;;;;;;9.64;59.57;96098.84;2060418;28;20202;-66
2024/03/23 13:23:35;;;;;;;10.50;3.13;;;;;;;9.62;59.42;96083.28;2060231;28;20224;-66
2024/03/23 13:24:36;;;;;;;6.47;1.85;;;;;;;9.55;59.81;96088.84;2060574;28;20783;-65
2024/03/23 13:25:37;;;;;;;9.05;4.03;;;;;;;9.69;60.65;96089.03;2058988;28;20215;-65
2024/03/23 13:26:37;;;;;;;8.80;2.23;;;;;;;9.59;59.51;96086.03;2063067;28;20727;-66
2024/03/23 13:27:38;;;;;;;8.97;2.10;;;;;;;9.36;60.58;96081.94;2064039;28;20256;-65
2024/03/23 13:28:39;;;;;;;8.53;2.70;;;;;;;10.03;60.50;96089.06;2063560;28;20728;-66
2024/03/23 13:29:40;;;;;;;12.60;4.40;;;;;;;10.47;59.71;96100.75;2060826;28;20214;-66
2024/03/23 13:30:42;;;;;;;13.63;3.80;;;;;;;10.54;58.62;96087.31;2060907;28;20206;-66
2024/03/23 13:31:43;;;;;;;10.50;2.53;;;;;;;10.12;59.25;96096.44;2060287;28;20226;-66
2024/03/23 13:32:43;;;;;;;13.53;2.47;;;;;;;9.92;59.65;96100.06;2059283;28;20261;-66
2024/03/23 13:33:44;;;;;;;6.50;2.07;;;;;;;9.65;60.09;96103.13;2066608;28;20645;-65
2024/03/23 13:34:44;;;;;;;6.03;1.80;;;;;;;9.30;61.50;96114.34;2065750;28;20198;-66
2024/03/23 13:35:52;;;;;;;9.73;2.00;;;;;;;9.05;60.81;96106.84;2069705;28;20392;-66
2024/03/23 13:36:52;;;;;;;10.65;1.92;;;;;;;8.71;61.47;96097.16;2066910;28;20692;-65
2024/03/23 13:37:53;;;;;;;8.90;1.70;;;;;;;8.66;62.78;96113.00;2066849;28;20567;-65
2024/03/23 13:38:53;;;;;;;12.87;3.00;;;;;;;8.62;64.21;96112.31;2066180;28;20543;-66
2024/03/23 13:39:54;;;;;;;5.10;1.67;;;;;;;8.64;65.48;96115.66;2059403;28;20206;-66
2024/03/23 13:40:58;;;;;;;5.73;2.10;;;;;;;8.33;64.56;96110.97;2058294;28;20199;-66
2024/03/23 13:41:59;;;;;;;8.75;1.70;;;;;;;8.10;64.63;96133.63;2063480;28;20281;-66
2024/03/23 14:12:30;;;;;;;4.72;2.15;;;;;;;3.04;99.49;96180.16;2084846;28;20580;-65
2024/03/23 14:13:31;;;;;;;9.33;1.93;;;;;;;3.18;99.30;96183.25;2081130;28;20214;-65